메인 페이지
METAR-TAF:

METAR-TAF

공항 :

에드먼턴, 앨버타, 캐나다

위도: 53-18N, 경도: 113-35W, 고도: 715m

현재 날씨관측

예보는 20분 전, 21:00시(UTC)에 발표되었습니다.
12kt, 순간 최대 풍속 19kt
온도 10°C
습도 57%
기압 1018 hPa
시정: 24.1km
고도 25000ft 상공 구름 조금

METAR: CYEG 192100Z 17012G19KT 15SM FEW250 10/02 A3007 RMK CI1 CI TR SLP209

시각: 15:20 (21:20 UTC)

예보

예보는 42분 전, 20:38시(UTC)에 발표되었습니다.
예보 대상 시간: 19일 21시부터 20일 18시까지 (UTC)
남남동12kt
시정: 10km
고도 24000ft 상공 구름 조금
20일 0300시부터 (UTC)
남남동8kt
시정: 10km
고도 20000ft 상공 구름 보통
전환 중
20일 08시부터 20일 09시까지 (UTC)
여러 방향의 바람 3kt
20일 1500시부터 (UTC)
남남서5kt
시정: 10km
고도 8000ft 상공 구름 조금
고도 14000ft 상공 구름 많음
고도 22000ft 상공 구름 많음

TAF: CYEG 192038Z 1921/2018 15012KT P6SM FEW240 FM200300 16008KT P6SM SCT200 BECMG 2008/2009 VRB03KT FM201500 20005KT P6SM FEW080 BKN140 BKN220 RMK NXT FCST BY 200000Z

4,000개 이상의 공항 관측 자료 및 예보 (METAR 및 TAF 보고).

지도상에서 검색 가능한 기상관측소가 노란 점과 빨간 점으로 표시되어 있습니다.

기상관측소 명을 보려면 표시 위로 마우스를 이동하세요.

날씨 관측과 예보를 보려면 클릭하세요.

지도 변경 : 확대하려면 엑스 표시가 있는 녹색 버튼, 축소하려면 빼기 표시가 있는 녹색 버튼, 다음 페이지의 지도를 보려면 녹색 화살표를 클릭하세요.


METAR-TAF: